Agua de Fontanales, Spain

5:22 PM WEST on July 20, 2017 (GMT +0100)
Vega de San Mateo | | Change Station

Elev 2733 ft 28.01 °N, 15.53 °W | Updated 1 minute ago

Clear
Clear
67.9 °F
Feels Like 67.9 °F
N
7.0
Wind Variable Wind from NNW
Gusts 7.0 mph

Today
High -- | Low -- °F
--% Chance of Precip.
Yesterday
High -- | Low -- °F
Precip. -- in
Pressure 30.15 in
Visibility 6.2 miles
Clouds Few 500 ft
Scattered Clouds 1000 ft
Dew Point 60 °F
Humidity 75%
Rainfall 0.00 in
Snow Depth Not available.
7:18 AM 8:58 PM
Waning Crescent, 11% visible
METAR GCXO 201600Z 32016KT 290V350 9999 FEW005 SCT010 20/16 Q1021 NOSIG
Pressure 30.15 in
Visibility 6.2 miles
Clouds Few 500 ft
Scattered Clouds 1000 ft
Dew Point 60 °F
Humidity 75%
Rainfall 0.00 in
Snow Depth Not available.
7:18 AM 8:58 PM
Waning Crescent, 11% visible
METAR GCXO 201600Z 32016KT 290V350 9999 FEW005 SCT010 20/16 Q1021 NOSIG

Get Severe Weather Alerts

Thanks for signing up!

Be on the lookout for a verification email in your inbox.

You'll start receiving the daily forecast at 6 AM.

×

10-Day Weather Forecast

×

Almanac

Astronomy

Jul. 20, 2017 Rise Set
Actual Time
Civil Twilight
Nautical Twilight
Astronomical Twilight
Moon
Length of Visible Light
Length of Day
Tomorrow will be .
, % of the Moon is Illuminated

Today's Extremes

Country Highs Country Lows

Community

WunderPhotos

Category 6

Welcome to Category 6. This is the collective home for Weather Underground's featured writeups by Dr. Jeff Masters (right), Bob Henson (left), Chris Burt, and other regular contributors.

Nearby

Air Quality

  Air Quality AQ Index Pollutant
Not available.

Snow Depth

Station Depth Elevation

Earthquake Activity

City Distance Mag. Time & Date
Minimum magnitude displayed is 2.5.

Coastal Water Temperatures

Place Temperature

Stations

Nearby Weather Stations

Station Location Temp. Windchill Dew Point Humidity Wind Precip. Elev Updated Type